Astro Chloe — SVAL7 — position and weather

sailwx.info

Track history (hours):
 
Tides and Currents Weather Stations Pressure Air Temp Water Temp Dewpoint Dewpoint Depression Visibility Wind Speed Wind Dir Waves Ship Positions

Astro Chloe

Last reported at 2017-May-10 09:09 UTC. Time now 2017-May-23 06:49 UTC.
Position N 25°11' E 121°12'.
Warning: this ship's position is 12 days out of date.

Length 333 m; draft 16.5 m.

Type: Tanker. MMSI: 240839000.

Date/timePositionNaut miles runAvg speedWind from/ knotsBaromVisibWave heightAir tempDewpointWater temp
2017-May-10 09:09N 25°11' E 121°12'0 0.4
2017-May-10 08:51N 25°11' E 121°12'0 0.5
2017-May-10 08:15N 25°11' E 121°12'  
2017-May-01 20:54N 22°57' E 119°55'513.1
2017-May-01 20:30N 22°52' E 119°55'612.8
2017-May-01 20:00N 22°46' E 119°57'612.9
2017-May-01 19:30N 22°40' E 120°00'713.1
2017-May-01 19:00N 22°35' E 120°05'713.0
2017-May-01 18:30N 22°31' E 120°11'611.9
2017-May-01 18:00N 22°28' E 120°16'1 2.5
2017-May-01 17:30N 22°28' E 120°18'0 0.3
2017-May-01 16:59N 22°28' E 120°17'0 0.1
2017-May-01 16:29N 22°28' E 120°18'0 0.1
2017-May-01 15:59N 22°28' E 120°18'0 0.0
2017-May-01 15:29N 22°28' E 120°18'0 0.0
2017-May-01 14:59N 22°28' E 120°18'0 0.0
2017-May-01 14:29N 22°28' E 120°18'0 0.0
2017-May-01 13:29N 22°28' E 120°18'0 0.1
2017-May-01 12:59N 22°28' E 120°18'0 0.0
2017-May-01 12:29N 22°28' E 120°18'0 0.0
2017-May-01 11:59N 22°28' E 120°18'0 0.1
2017-May-01 11:29N 22°28' E 120°17'0 0.1
2017-May-01 10:59N 22°28' E 120°17'0 0.2
2017-May-01 10:29N 22°28' E 120°17'0 0.1
2017-May-01 09:59N 22°28' E 120°17'0 0.0
2017-May-01 09:29N 22°28' E 120°17'0 0.1
2017-May-01 08:59N 22°28' E 120°17'0 0.0
2017-May-01 08:29N 22°28' E 120°17'0 0.0
2017-May-01 07:59N 22°28' E 120°17'0 0.0
2017-May-01 07:29N 22°28' E 120°17'0 0.1
2017-May-01 06:59N 22°28' E 120°17'0 0.1
2017-May-01 06:26N 22°28' E 120°17'0 0.1
2017-May-01 05:59N 22°28' E 120°17'0 0.0
2017-May-01 05:29N 22°28' E 120°17'0 0.1
2017-May-01 04:59N 22°28' E 120°17'0 0.1
2017-May-01 04:29N 22°28' E 120°17'0 0.0
2017-May-01 03:59N 22°28' E 120°17'0 0.1
2017-May-01 03:29N 22°28' E 120°17'0 0.0
2017-May-01 03:00N 22°28' E 120°17'0 0.1
2017-May-01 02:30N 22°28' E 120°17'0 0.3
2017-May-01 02:00N 22°28' E 120°18'1 1.3
2017-May-01 01:30N 22°28' E 120°17'1 3.0
2017-May-01 01:00N 22°29' E 120°16'0 0.5
2017-May-01 00:25N 22°29' E 120°16'0 0.0
2017-Apr-30 23:55N 22°29' E 120°16'0 0.0
2017-Apr-30 23:25N 22°29' E 120°16'0 0.0
2017-Apr-30 22:55N 22°29' E 120°16'0 0.0
2017-Apr-30 22:25N 22°29' E 120°16'0 0.1
2017-Apr-30 21:58N 22°29' E 120°16'0 0.0
2017-Apr-30 21:22N 22°29' E 120°16'0 0.0
2017-Apr-30 20:58N 22°29' E 120°16'0 0.1
2017-Apr-30 20:25N 22°29' E 120°15'0 0.0
2017-Apr-30 19:58N 22°29' E 120°15'0 0.1
2017-Apr-30 19:28N 22°29' E 120°15'0 0.0
2017-Apr-30 18:58N 22°29' E 120°15'0 0.0
2017-Apr-30 18:28N 22°29' E 120°15'0 0.0
2017-Apr-30 17:58N 22°29' E 120°15'0 0.1
2017-Apr-30 17:28N 22°29' E 120°15'0 0.1
2017-Apr-30 16:58N 22°29' E 120°15'0 0.0
2017-Apr-30 16:28N 22°29' E 120°15'0 0.1
2017-Apr-30 15:55N 22°29' E 120°15'0 0.1
2017-Apr-30 15:28N 22°29' E 120°15'0 0.1
2017-Apr-30 14:58N 22°29' E 120°15'0 0.0
2017-Apr-30 14:28N 22°29' E 120°15'0 0.0
2017-Apr-30 13:28N 22°29' E 120°15'0 0.0
2017-Apr-30 12:58N 22°29' E 120°15'0 0.1
2017-Apr-30 12:28N 22°29' E 120°16'0 0.1
2017-Apr-30 11:58N 22°29' E 120°15'0 0.1
2017-Apr-30 11:28N 22°29' E 120°15'0 0.1
2017-Apr-30 10:58N 22°29' E 120°15'0 0.0
2017-Apr-30 10:19N 22°29' E 120°15'0 0.1
2017-Apr-30 09:46N 22°29' E 120°15'0 0.2
2017-Apr-30 09:28N 22°29' E 120°15'  
Track history (hours):
 
Tides and Currents Weather Stations Pressure Air Temp Water Temp Dewpoint Dewpoint Depression Visibility Wind Speed Wind Dir Waves Ship Positions

Astro Chloe

Last reported at 2017-May-10 09:09 UTC. Time now 2017-May-23 06:49 UTC.
Position N 25°11' E 121°12'.
Warning: this ship's position is 12 days out of date.

Length 333 m; draft 16.5 m.

Type: Tanker. MMSI: 240839000.

Date/timePositionNaut miles runAvg speedWind from/ knotsBaromVisibWave heightAir tempDewpointWater temp
2017-May-10 09:09N 25°11' E 121°12'0 0.4
2017-May-10 08:51N 25°11' E 121°12'0 0.5
2017-May-10 08:15N 25°11' E 121°12'  
2017-May-01 20:54N 22°57' E 119°55'513.1
2017-May-01 20:30N 22°52' E 119°55'612.8
2017-May-01 20:00N 22°46' E 119°57'612.9
2017-May-01 19:30N 22°40' E 120°00'713.1
2017-May-01 19:00N 22°35' E 120°05'713.0
2017-May-01 18:30N 22°31' E 120°11'611.9
2017-May-01 18:00N 22°28' E 120°16'1 2.5
2017-May-01 17:30N 22°28' E 120°18'0 0.3
2017-May-01 16:59N 22°28' E 120°17'0 0.1
2017-May-01 16:29N 22°28' E 120°18'0 0.1
2017-May-01 15:59N 22°28' E 120°18'0 0.0
2017-May-01 15:29N 22°28' E 120°18'0 0.0
2017-May-01 14:59N 22°28' E 120°18'0 0.0
2017-May-01 14:29N 22°28' E 120°18'0 0.0
2017-May-01 13:29N 22°28' E 120°18'0 0.1
2017-May-01 12:59N 22°28' E 120°18'0 0.0
2017-May-01 12:29N 22°28' E 120°18'0 0.0
2017-May-01 11:59N 22°28' E 120°18'0 0.1
2017-May-01 11:29N 22°28' E 120°17'0 0.1
2017-May-01 10:59N 22°28' E 120°17'0 0.2
2017-May-01 10:29N 22°28' E 120°17'0 0.1
2017-May-01 09:59N 22°28' E 120°17'0 0.0
2017-May-01 09:29N 22°28' E 120°17'0 0.1
2017-May-01 08:59N 22°28' E 120°17'0 0.0
2017-May-01 08:29N 22°28' E 120°17'0 0.0
2017-May-01 07:59N 22°28' E 120°17'0 0.0
2017-May-01 07:29N 22°28' E 120°17'0 0.1
2017-May-01 06:59N 22°28' E 120°17'0 0.1
2017-May-01 06:26N 22°28' E 120°17'0 0.1
2017-May-01 05:59N 22°28' E 120°17'0 0.0
2017-May-01 05:29N 22°28' E 120°17'0 0.1
2017-May-01 04:59N 22°28' E 120°17'0 0.1
2017-May-01 04:29N 22°28' E 120°17'0 0.0
2017-May-01 03:59N 22°28' E 120°17'0 0.1
2017-May-01 03:29N 22°28' E 120°17'0 0.0
2017-May-01 03:00N 22°28' E 120°17'0 0.1
2017-May-01 02:30N 22°28' E 120°17'0 0.3
2017-May-01 02:00N 22°28' E 120°18'1 1.3
2017-May-01 01:30N 22°28' E 120°17'1 3.0
2017-May-01 01:00N 22°29' E 120°16'0 0.5
2017-May-01 00:25N 22°29' E 120°16'0 0.0
2017-Apr-30 23:55N 22°29' E 120°16'0 0.0
2017-Apr-30 23:25N 22°29' E 120°16'0 0.0
2017-Apr-30 22:55N 22°29' E 120°16'0 0.0
2017-Apr-30 22:25N 22°29' E 120°16'0 0.1
2017-Apr-30 21:58N 22°29' E 120°16'0 0.0
2017-Apr-30 21:22N 22°29' E 120°16'0 0.0
2017-Apr-30 20:58N 22°29' E 120°16'0 0.1
2017-Apr-30 20:25N 22°29' E 120°15'0 0.0
2017-Apr-30 19:58N 22°29' E 120°15'0 0.1
2017-Apr-30 19:28N 22°29' E 120°15'0 0.0
2017-Apr-30 18:58N 22°29' E 120°15'0 0.0
2017-Apr-30 18:28N 22°29' E 120°15'0 0.0
2017-Apr-30 17:58N 22°29' E 120°15'0 0.1
2017-Apr-30 17:28N 22°29' E 120°15'0 0.1
2017-Apr-30 16:58N 22°29' E 120°15'0 0.0
2017-Apr-30 16:28N 22°29' E 120°15'0 0.1
2017-Apr-30 15:55N 22°29' E 120°15'0 0.1
2017-Apr-30 15:28N 22°29' E 120°15'0 0.1
2017-Apr-30 14:58N 22°29' E 120°15'0 0.0
2017-Apr-30 14:28N 22°29' E 120°15'0 0.0
2017-Apr-30 13:28N 22°29' E 120°15'0 0.0
2017-Apr-30 12:58N 22°29' E 120°15'0 0.1
2017-Apr-30 12:28N 22°29' E 120°16'0 0.1
2017-Apr-30 11:58N 22°29' E 120°15'0 0.1
2017-Apr-30 11:28N 22°29' E 120°15'0 0.1
2017-Apr-30 10:58N 22°29' E 120°15'0 0.0
2017-Apr-30 10:19N 22°29' E 120°15'0 0.1
2017-Apr-30 09:46N 22°29' E 120°15'0 0.2
2017-Apr-30 09:28N 22°29' E 120°15'  

Dump ship's entire track history